sensor_id;sensor_type;location;lat;lon;timestamp;temperature;humidity
1379;DHT22;683;48.738;9.226;2023-06-14T00:01:50;14.90;51.00
1379;DHT22;683;48.738;9.226;2023-06-14T00:04:18;14.90;51.20
1379;DHT22;683;48.738;9.226;2023-06-14T00:06:46;14.90;51.50
1379;DHT22;683;48.738;9.226;2023-06-14T00:09:16;14.80;51.70
1379;DHT22;683;48.738;9.226;2023-06-14T00:11:44;14.80;52.30
1379;DHT22;683;48.738;9.226;2023-06-14T00:14:11;14.80;52.50
1379;DHT22;683;48.738;9.226;2023-06-14T00:16:39;14.70;52.60
1379;DHT22;683;48.738;9.226;2023-06-14T00:19:08;14.60;52.60
1379;DHT22;683;48.738;9.226;2023-06-14T00:21:36;14.60;52.80
1379;DHT22;683;48.738;9.226;2023-06-14T00:24:04;14.50;53.10
1379;DHT22;683;48.738;9.226;2023-06-14T00:26:34;14.50;53.30
1379;DHT22;683;48.738;9.226;2023-06-14T00:29:01;14.40;53.50
1379;DHT22;683;48.738;9.226;2023-06-14T00:31:29;14.30;53.80
1379;DHT22;683;48.738;9.226;2023-06-14T00:33:58;14.30;54.00
1379;DHT22;683;48.738;9.226;2023-06-14T00:36:25;14.20;54.00
1379;DHT22;683;48.738;9.226;2023-06-14T00:38:53;14.20;54.20
1379;DHT22;683;48.738;9.226;2023-06-14T00:41:22;14.10;54.40
1379;DHT22;683;48.738;9.226;2023-06-14T00:43:51;14.10;55.00
1379;DHT22;683;48.738;9.226;2023-06-14T00:46:19;14.00;55.10
1379;DHT22;683;48.738;9.226;2023-06-14T00:48:48;14.00;55.50
1379;DHT22;683;48.738;9.226;2023-06-14T00:51:16;13.90;55.60
1379;DHT22;683;48.738;9.226;2023-06-14T00:53:44;13.80;55.70
1379;DHT22;683;48.738;9.226;2023-06-14T00:56:14;13.80;55.80
1379;DHT22;683;48.738;9.226;2023-06-14T00:58:42;13.80;56.00
1379;DHT22;683;48.738;9.226;2023-06-14T01:01:11;13.70;56.00
1379;DHT22;683;48.738;9.226;2023-06-14T01:03:40;13.60;56.00
1379;DHT22;683;48.738;9.226;2023-06-14T01:06:18;13.60;56.00
1379;DHT22;683;48.738;9.226;2023-06-14T01:09:03;13.60;56.00
1379;DHT22;683;48.738;9.226;2023-06-14T01:11:35;13.60;55.80
1379;DHT22;683;48.738;9.226;2023-06-14T01:14:05;13.50;55.80
1379;DHT22;683;48.738;9.226;2023-06-14T01:16:35;13.50;55.80
1379;DHT22;683;48.738;9.226;2023-06-14T01:19:06;13.40;55.60
1379;DHT22;683;48.738;9.226;2023-06-14T01:21:40;13.40;55.30
1379;DHT22;683;48.738;9.226;2023-06-14T01:24:10;13.40;55.10
1379;DHT22;683;48.738;9.226;2023-06-14T01:26:38;13.40;55.10
1379;DHT22;683;48.738;9.226;2023-06-14T01:29:13;13.40;55.20
1379;DHT22;683;48.738;9.226;2023-06-14T01:31:45;13.40;55.30
1379;DHT22;683;48.738;9.226;2023-06-14T01:34:14;13.40;55.60
1379;DHT22;683;48.738;9.226;2023-06-14T01:36:44;13.30;55.90
1379;DHT22;683;48.738;9.226;2023-06-14T01:39:14;13.30;56.20
1379;DHT22;683;48.738;9.226;2023-06-14T01:41:43;13.30;56.30
1379;DHT22;683;48.738;9.226;2023-06-14T01:44:13;13.30;56.50
1379;DHT22;683;48.738;9.226;2023-06-14T01:46:42;13.20;56.70
1379;DHT22;683;48.738;9.226;2023-06-14T01:49:11;13.10;56.80
1379;DHT22;683;48.738;9.226;2023-06-14T01:51:38;13.10;57.10
1379;DHT22;683;48.738;9.226;2023-06-14T01:54:06;13.10;57.40
1379;DHT22;683;48.738;9.226;2023-06-14T01:56:34;13.00;57.50
1379;DHT22;683;48.738;9.226;2023-06-14T01:59:02;13.00;57.50
1379;DHT22;683;48.738;9.226;2023-06-14T02:01:29;13.00;57.50
1379;DHT22;683;48.738;9.226;2023-06-14T02:04:01;12.90;57.50
1379;DHT22;683;48.738;9.226;2023-06-14T02:06:29;12.90;57.60
1379;DHT22;683;48.738;9.226;2023-06-14T02:08:56;12.90;57.80
1379;DHT22;683;48.738;9.226;2023-06-14T02:11:24;12.80;57.90
1379;DHT22;683;48.738;9.226;2023-06-14T02:13:53;12.80;58.00
1379;DHT22;683;48.738;9.226;2023-06-14T02:16:21;12.80;58.00
1379;DHT22;683;48.738;9.226;2023-06-14T02:18:48;12.90;58.10
1379;DHT22;683;48.738;9.226;2023-06-14T02:21:17;12.80;58.00
1379;DHT22;683;48.738;9.226;2023-06-14T02:23:46;12.80;58.10
1379;DHT22;683;48.738;9.226;2023-06-14T02:26:13;12.80;58.20
1379;DHT22;683;48.738;9.226;2023-06-14T02:28:41;12.70;58.00
1379;DHT22;683;48.738;9.226;2023-06-14T02:31:10;12.70;58.00
1379;DHT22;683;48.738;9.226;2023-06-14T02:33:37;12.70;58.10
1379;DHT22;683;48.738;9.226;2023-06-14T02:36:06;12.70;58.40
1379;DHT22;683;48.738;9.226;2023-06-14T02:38:34;12.70;58.60
1379;DHT22;683;48.738;9.226;2023-06-14T02:41:02;12.60;58.50
1379;DHT22;683;48.738;9.226;2023-06-14T02:43:30;12.60;58.80
1379;DHT22;683;48.738;9.226;2023-06-14T02:45:58;12.60;59.00
1379;DHT22;683;48.738;9.226;2023-06-14T02:48:27;12.50;59.10
1379;DHT22;683;48.738;9.226;2023-06-14T02:50:55;12.50;59.30
1379;DHT22;683;48.738;9.226;2023-06-14T02:53:23;12.50;59.30
1379;DHT22;683;48.738;9.226;2023-06-14T02:55:50;12.40;59.30
1379;DHT22;683;48.738;9.226;2023-06-14T02:58:18;12.40;59.40
1379;DHT22;683;48.738;9.226;2023-06-14T03:00:46;12.40;59.40
1379;DHT22;683;48.738;9.226;2023-06-14T03:03:14;12.40;59.60
1379;DHT22;683;48.738;9.226;2023-06-14T03:05:50;12.40;59.60
1379;DHT22;683;48.738;9.226;2023-06-14T03:08:22;12.40;59.60
1379;DHT22;683;48.738;9.226;2023-06-14T03:10:54;12.40;59.70
1379;DHT22;683;48.738;9.226;2023-06-14T03:13:24;12.40;59.70
1379;DHT22;683;48.738;9.226;2023-06-14T03:15:53;12.50;59.70
1379;DHT22;683;48.738;9.226;2023-06-14T03:18:23;12.50;59.70
1379;DHT22;683;48.738;9.226;2023-06-14T03:20:52;12.50;60.00
1379;DHT22;683;48.738;9.226;2023-06-14T03:23:20;12.50;60.20
1379;DHT22;683;48.738;9.226;2023-06-14T03:25:48;12.50;60.10
1379;DHT22;683;48.738;9.226;2023-06-14T03:28:15;12.50;60.10
1379;DHT22;683;48.738;9.226;2023-06-14T03:30:43;12.50;60.40
1379;DHT22;683;48.738;9.226;2023-06-14T03:33:11;12.50;60.50
1379;DHT22;683;48.738;9.226;2023-06-14T03:35:40;12.50;60.50
1379;DHT22;683;48.738;9.226;2023-06-14T03:38:10;12.50;60.50
1379;DHT22;683;48.738;9.226;2023-06-14T03:40:38;12.50;60.60
1379;DHT22;683;48.738;9.226;2023-06-14T03:43:06;12.50;60.90
1379;DHT22;683;48.738;9.226;2023-06-14T03:45:34;12.40;61.00
1379;DHT22;683;48.738;9.226;2023-06-14T03:48:01;12.40;61.30
1379;DHT22;683;48.738;9.226;2023-06-14T03:50:30;12.50;61.60
1379;DHT22;683;48.738;9.226;2023-06-14T03:52:58;12.50;61.60
1379;DHT22;683;48.738;9.226;2023-06-14T03:55:28;12.50;61.70
1379;DHT22;683;48.738;9.226;2023-06-14T03:57:58;12.50;61.80
1379;DHT22;683;48.738;9.226;2023-06-14T04:00:25;12.50;61.90
1379;DHT22;683;48.738;9.226;2023-06-14T04:02:53;12.60;62.00
1379;DHT22;683;48.738;9.226;2023-06-14T04:05:21;12.60;62.20
1379;DHT22;683;48.738;9.226;2023-06-14T04:07:53;12.60;62.20
1379;DHT22;683;48.738;9.226;2023-06-14T04:10:21;12.70;62.40
1379;DHT22;683;48.738;9.226;2023-06-14T04:12:50;12.70;62.40
1379;DHT22;683;48.738;9.226;2023-06-14T04:15:18;12.70;62.40
1379;DHT22;683;48.738;9.226;2023-06-14T04:17:46;12.80;62.50
1379;DHT22;683;48.738;9.226;2023-06-14T04:20:15;12.80;62.40
1379;DHT22;683;48.738;9.226;2023-06-14T04:22:43;12.90;62.40
1379;DHT22;683;48.738;9.226;2023-06-14T04:25:11;12.90;62.70
1379;DHT22;683;48.738;9.226;2023-06-14T04:27:41;13.00;62.60
1379;DHT22;683;48.738;9.226;2023-06-14T04:30:12;13.10;62.60
1379;DHT22;683;48.738;9.226;2023-06-14T04:32:46;13.20;62.50
1379;DHT22;683;48.738;9.226;2023-06-14T04:35:14;13.20;62.30
1379;DHT22;683;48.738;9.226;2023-06-14T04:37:43;13.30;62.00
1379;DHT22;683;48.738;9.226;2023-06-14T04:40:12;13.40;62.00
1379;DHT22;683;48.738;9.226;2023-06-14T04:42:40;13.50;61.90
1379;DHT22;683;48.738;9.226;2023-06-14T04:45:15;13.60;61.80
1379;DHT22;683;48.738;9.226;2023-06-14T04:47:44;13.70;61.70
1379;DHT22;683;48.738;9.226;2023-06-14T04:50:12;13.80;61.40
1379;DHT22;683;48.738;9.226;2023-06-14T04:52:40;13.90;61.20
1379;DHT22;683;48.738;9.226;2023-06-14T04:55:10;14.00;61.10
1379;DHT22;683;48.738;9.226;2023-06-14T04:57:37;14.10;61.00
1379;DHT22;683;48.738;9.226;2023-06-14T05:00:09;14.20;60.80
1379;DHT22;683;48.738;9.226;2023-06-14T05:02:40;14.30;60.80
1379;DHT22;683;48.738;9.226;2023-06-14T05:05:08;14.40;60.50
1379;DHT22;683;48.738;9.226;2023-06-14T05:07:37;14.50;60.00
1379;DHT22;683;48.738;9.226;2023-06-14T05:10:05;14.60;60.00
1379;DHT22;683;48.738;9.226;2023-06-14T05:12:33;14.60;59.80
1379;DHT22;683;48.738;9.226;2023-06-14T05:15:00;14.70;59.90
1379;DHT22;683;48.738;9.226;2023-06-14T05:17:28;14.80;60.00
1379;DHT22;683;48.738;9.226;2023-06-14T05:19:57;14.80;59.90
1379;DHT22;683;48.738;9.226;2023-06-14T05:22:24;14.90;60.00
1379;DHT22;683;48.738;9.226;2023-06-14T05:24:52;15.00;60.00
1379;DHT22;683;48.738;9.226;2023-06-14T05:27:19;15.10;60.80
1379;DHT22;683;48.738;9.226;2023-06-14T05:29:47;15.20;60.00
1379;DHT22;683;48.738;9.226;2023-06-14T05:32:15;15.30;59.70
1379;DHT22;683;48.738;9.226;2023-06-14T05:34:43;15.40;59.30
1379;DHT22;683;48.738;9.226;2023-06-14T05:37:12;15.50;59.20
1379;DHT22;683;48.738;9.226;2023-06-14T05:39:39;15.60;59.10
1379;DHT22;683;48.738;9.226;2023-06-14T05:42:07;15.70;58.80
1379;DHT22;683;48.738;9.226;2023-06-14T05:44:35;15.80;58.80
1379;DHT22;683;48.738;9.226;2023-06-14T05:47:03;15.80;58.70
1379;DHT22;683;48.738;9.226;2023-06-14T05:49:31;15.90;58.90
1379;DHT22;683;48.738;9.226;2023-06-14T05:51:58;16.00;59.00
1379;DHT22;683;48.738;9.226;2023-06-14T05:54:27;16.00;59.00
1379;DHT22;683;48.738;9.226;2023-06-14T05:56:55;16.10;59.10
1379;DHT22;683;48.738;9.226;2023-06-14T05:59:27;16.20;58.90
1379;DHT22;683;48.738;9.226;2023-06-14T06:01:54;16.30;58.70
1379;DHT22;683;48.738;9.226;2023-06-14T06:04:23;16.30;58.60
1379;DHT22;683;48.738;9.226;2023-06-14T06:06:50;16.50;58.80
1379;DHT22;683;48.738;9.226;2023-06-14T06:09:18;16.50;57.80
1379;DHT22;683;48.738;9.226;2023-06-14T06:11:47;16.60;57.40
1379;DHT22;683;48.738;9.226;2023-06-14T06:14:15;16.70;56.60
1379;DHT22;683;48.738;9.226;2023-06-14T06:16:42;16.80;55.80
1379;DHT22;683;48.738;9.226;2023-06-14T06:19:10;16.90;55.50
1379;DHT22;683;48.738;9.226;2023-06-14T06:21:37;17.00;54.90
1379;DHT22;683;48.738;9.226;2023-06-14T06:24:06;17.10;55.20
1379;DHT22;683;48.738;9.226;2023-06-14T06:26:33;17.10;54.80
1379;DHT22;683;48.738;9.226;2023-06-14T06:29:02;17.20;55.20
1379;DHT22;683;48.738;9.226;2023-06-14T06:31:30;17.30;55.20
1379;DHT22;683;48.738;9.226;2023-06-14T06:33:57;17.40;54.80
1379;DHT22;683;48.738;9.226;2023-06-14T06:36:25;17.40;54.80
1379;DHT22;683;48.738;9.226;2023-06-14T06:38:52;17.50;54.10
1379;DHT22;683;48.738;9.226;2023-06-14T06:41:20;17.60;53.40
1379;DHT22;683;48.738;9.226;2023-06-14T06:43:47;17.80;53.40
1379;DHT22;683;48.738;9.226;2023-06-14T06:46:18;18.00;53.00
1379;DHT22;683;48.738;9.226;2023-06-14T06:48:45;18.10;53.10
1379;DHT22;683;48.738;9.226;2023-06-14T06:51:13;18.20;52.90
1379;DHT22;683;48.738;9.226;2023-06-14T06:53:42;18.20;52.50
1379;DHT22;683;48.738;9.226;2023-06-14T06:56:11;18.30;52.20
1379;DHT22;683;48.738;9.226;2023-06-14T06:58:38;18.30;52.00
1379;DHT22;683;48.738;9.226;2023-06-14T07:01:06;18.30;52.10
1379;DHT22;683;48.738;9.226;2023-06-14T07:03:36;18.40;52.50
1379;DHT22;683;48.738;9.226;2023-06-14T07:06:04;18.40;52.70
1379;DHT22;683;48.738;9.226;2023-06-14T07:08:31;18.40;52.90
1379;DHT22;683;48.738;9.226;2023-06-14T07:10:59;18.50;52.90
1379;DHT22;683;48.738;9.226;2023-06-14T07:13:27;18.50;52.80
1379;DHT22;683;48.738;9.226;2023-06-14T07:15:56;18.50;52.40
1379;DHT22;683;48.738;9.226;2023-06-14T07:18:24;18.50;52.30
1379;DHT22;683;48.738;9.226;2023-06-14T07:20:54;18.60;52.50
1379;DHT22;683;48.738;9.226;2023-06-14T07:23:22;18.60;52.00
1379;DHT22;683;48.738;9.226;2023-06-14T07:25:50;18.70;52.10
1379;DHT22;683;48.738;9.226;2023-06-14T07:28:17;18.70;52.50
1379;DHT22;683;48.738;9.226;2023-06-14T07:30:45;18.70;52.40
1379;DHT22;683;48.738;9.226;2023-06-14T07:33:14;18.70;52.10
1379;DHT22;683;48.738;9.226;2023-06-14T07:35:41;18.70;52.20
1379;DHT22;683;48.738;9.226;2023-06-14T07:38:10;18.70;52.60
1379;DHT22;683;48.738;9.226;2023-06-14T07:40:38;18.80;53.00
1379;DHT22;683;48.738;9.226;2023-06-14T07:43:06;18.80;52.80
1379;DHT22;683;48.738;9.226;2023-06-14T07:45:33;18.90;52.60
1379;DHT22;683;48.738;9.226;2023-06-14T07:48:01;19.00;52.20
1379;DHT22;683;48.738;9.226;2023-06-14T07:50:28;19.10;51.90
1379;DHT22;683;48.738;9.226;2023-06-14T07:52:56;19.20;51.90
1379;DHT22;683;48.738;9.226;2023-06-14T07:55:26;19.30;51.70
1379;DHT22;683;48.738;9.226;2023-06-14T07:57:54;19.30;51.90
1379;DHT22;683;48.738;9.226;2023-06-14T08:00:22;19.30;51.90
1379;DHT22;683;48.738;9.226;2023-06-14T08:02:49;19.30;51.80
1379;DHT22;683;48.738;9.226;2023-06-14T08:05:18;19.40;51.80
1379;DHT22;683;48.738;9.226;2023-06-14T08:07:45;19.40;51.70
1379;DHT22;683;48.738;9.226;2023-06-14T08:10:13;19.40;51.80
1379;DHT22;683;48.738;9.226;2023-06-14T08:12:41;19.60;52.00
1379;DHT22;683;48.738;9.226;2023-06-14T08:15:10;19.60;51.60
1379;DHT22;683;48.738;9.226;2023-06-14T08:17:37;19.60;51.20
1379;DHT22;683;48.738;9.226;2023-06-14T08:20:06;19.70;51.60
1379;DHT22;683;48.738;9.226;2023-06-14T08:22:34;19.70;51.20
1379;DHT22;683;48.738;9.226;2023-06-14T08:25:02;19.70;52.00
1379;DHT22;683;48.738;9.226;2023-06-14T08:27:30;19.80;51.80
1379;DHT22;683;48.738;9.226;2023-06-14T08:29:59;19.80;51.90
1379;DHT22;683;48.738;9.226;2023-06-14T08:32:26;19.90;51.80
1379;DHT22;683;48.738;9.226;2023-06-14T08:34:53;20.00;52.00
1379;DHT22;683;48.738;9.226;2023-06-14T08:37:21;20.00;51.30
1379;DHT22;683;48.738;9.226;2023-06-14T08:39:49;20.00;51.70
1379;DHT22;683;48.738;9.226;2023-06-14T08:42:19;20.10;51.90
1379;DHT22;683;48.738;9.226;2023-06-14T08:44:49;20.10;51.80
1379;DHT22;683;48.738;9.226;2023-06-14T08:47:17;20.20;51.40
1379;DHT22;683;48.738;9.226;2023-06-14T08:49:47;20.30;51.50
1379;DHT22;683;48.738;9.226;2023-06-14T08:52:16;20.30;51.40
1379;DHT22;683;48.738;9.226;2023-06-14T08:54:46;20.40;51.10
1379;DHT22;683;48.738;9.226;2023-06-14T08:57:15;20.50;51.50
1379;DHT22;683;48.738;9.226;2023-06-14T08:59:47;20.70;51.50
1379;DHT22;683;48.738;9.226;2023-06-14T09:02:19;20.80;51.20
1379;DHT22;683;48.738;9.226;2023-06-14T09:04:48;20.90;51.30
1379;DHT22;683;48.738;9.226;2023-06-14T09:07:16;21.00;50.90
1379;DHT22;683;48.738;9.226;2023-06-14T09:09:44;21.10;50.40
1379;DHT22;683;48.738;9.226;2023-06-14T09:12:12;21.10;50.10
1379;DHT22;683;48.738;9.226;2023-06-14T09:14:39;21.20;50.20
1379;DHT22;683;48.738;9.226;2023-06-14T09:17:08;21.30;50.60
1379;DHT22;683;48.738;9.226;2023-06-14T09:19:37;21.40;49.50
1379;DHT22;683;48.738;9.226;2023-06-14T09:22:05;21.40;49.10
1379;DHT22;683;48.738;9.226;2023-06-14T09:24:37;21.50;49.20
1379;DHT22;683;48.738;9.226;2023-06-14T09:27:05;21.60;48.90
1379;DHT22;683;48.738;9.226;2023-06-14T09:29:34;21.60;48.10
1379;DHT22;683;48.738;9.226;2023-06-14T09:32:01;21.70;48.40
1379;DHT22;683;48.738;9.226;2023-06-14T09:34:29;21.70;48.70
1379;DHT22;683;48.738;9.226;2023-06-14T09:36:58;21.80;49.00
1379;DHT22;683;48.738;9.226;2023-06-14T09:39:25;21.80;48.60
1379;DHT22;683;48.738;9.226;2023-06-14T09:41:53;21.90;48.00
1379;DHT22;683;48.738;9.226;2023-06-14T09:44:21;22.00;47.90
1379;DHT22;683;48.738;9.226;2023-06-14T09:46:51;22.10;47.30
1379;DHT22;683;48.738;9.226;2023-06-14T09:49:22;22.20;46.70
1379;DHT22;683;48.738;9.226;2023-06-14T09:51:53;22.30;45.50
1379;DHT22;683;48.738;9.226;2023-06-14T09:54:24;22.30;44.60
1379;DHT22;683;48.738;9.226;2023-06-14T09:56:53;22.30;45.10
1379;DHT22;683;48.738;9.226;2023-06-14T09:59:24;22.40;45.20
1379;DHT22;683;48.738;9.226;2023-06-14T10:01:58;22.40;43.90
1379;DHT22;683;48.738;9.226;2023-06-14T10:04:26;22.50;43.40
1379;DHT22;683;48.738;9.226;2023-06-14T10:06:54;22.60;42.40
1379;DHT22;683;48.738;9.226;2023-06-14T10:09:23;22.70;40.70
1379;DHT22;683;48.738;9.226;2023-06-14T10:11:51;22.90;39.60
1379;DHT22;683;48.738;9.226;2023-06-14T10:14:19;23.20;39.70
1379;DHT22;683;48.738;9.226;2023-06-14T10:16:54;23.40;42.20
1379;DHT22;683;48.738;9.226;2023-06-14T10:19:27;23.70;42.00
1379;DHT22;683;48.738;9.226;2023-06-14T10:22:04;24.00;41.60
1379;DHT22;683;48.738;9.226;2023-06-14T10:24:38;24.00;40.40
1379;DHT22;683;48.738;9.226;2023-06-14T10:27:07;24.00;41.00
1379;DHT22;683;48.738;9.226;2023-06-14T10:30:02;23.80;40.60
1379;DHT22;683;48.738;9.226;2023-06-14T10:32:32;23.70;40.30
1379;DHT22;683;48.738;9.226;2023-06-14T10:35:00;23.70;41.20
1379;DHT22;683;48.738;9.226;2023-06-14T10:37:29;23.70;41.50
1379;DHT22;683;48.738;9.226;2023-06-14T10:39:58;23.70;41.70
1379;DHT22;683;48.738;9.226;2023-06-14T10:42:29;23.80;41.50
1379;DHT22;683;48.738;9.226;2023-06-14T10:44:59;23.90;43.10
1379;DHT22;683;48.738;9.226;2023-06-14T10:47:29;23.90;40.90
1379;DHT22;683;48.738;9.226;2023-06-14T10:50:03;24.00;41.30
1379;DHT22;683;48.738;9.226;2023-06-14T10:52:34;24.00;40.80
1379;DHT22;683;48.738;9.226;2023-06-14T10:55:09;24.10;41.80
1379;DHT22;683;48.738;9.226;2023-06-14T10:57:38;24.20;42.10
1379;DHT22;683;48.738;9.226;2023-06-14T11:00:09;24.30;41.40
1379;DHT22;683;48.738;9.226;2023-06-14T11:03:25;24.50;41.10
1379;DHT22;683;48.738;9.226;2023-06-14T11:05:58;24.70;39.40
1379;DHT22;683;48.738;9.226;2023-06-14T11:11:18;24.70;39.60
1379;DHT22;683;48.738;9.226;2023-06-14T11:13:48;24.80;39.00
1379;DHT22;683;48.738;9.226;2023-06-14T11:16:17;24.90;39.10
1379;DHT22;683;48.738;9.226;2023-06-14T11:18:45;25.00;39.10
1379;DHT22;683;48.738;9.226;2023-06-14T11:21:16;25.20;38.40
1379;DHT22;683;48.738;9.226;2023-06-14T11:23:49;25.40;37.10
1379;DHT22;683;48.738;9.226;2023-06-14T11:26:26;25.40;37.30
1379;DHT22;683;48.738;9.226;2023-06-14T11:28:58;25.50;38.70
1379;DHT22;683;48.738;9.226;2023-06-14T11:31:27;25.50;38.80
1379;DHT22;683;48.738;9.226;2023-06-14T11:33:55;25.50;38.80
1379;DHT22;683;48.738;9.226;2023-06-14T11:36:23;25.40;39.60
1379;DHT22;683;48.738;9.226;2023-06-14T11:38:58;25.40;40.00
1379;DHT22;683;48.738;9.226;2023-06-14T11:41:32;25.50;40.90
1379;DHT22;683;48.738;9.226;2023-06-14T11:44:01;25.50;40.70
1379;DHT22;683;48.738;9.226;2023-06-14T11:46:28;25.60;40.30
1379;DHT22;683;48.738;9.226;2023-06-14T11:48:56;25.60;39.70
1379;DHT22;683;48.738;9.226;2023-06-14T11:51:24;25.70;40.20
1379;DHT22;683;48.738;9.226;2023-06-14T11:53:51;25.70;38.70
1379;DHT22;683;48.738;9.226;2023-06-14T11:56:19;25.50;37.20
1379;DHT22;683;48.738;9.226;2023-06-14T11:58:48;25.30;38.10
1379;DHT22;683;48.738;9.226;2023-06-14T12:01:17;25.20;39.00
1379;DHT22;683;48.738;9.226;2023-06-14T12:03:48;25.20;39.20
1379;DHT22;683;48.738;9.226;2023-06-14T12:06:16;25.30;38.10
1379;DHT22;683;48.738;9.226;2023-06-14T12:08:55;25.40;39.00
1379;DHT22;683;48.738;9.226;2023-06-14T12:11:23;25.60;38.40
1379;DHT22;683;48.738;9.226;2023-06-14T12:13:52;25.80;38.80
1379;DHT22;683;48.738;9.226;2023-06-14T12:16:20;25.90;38.80
1379;DHT22;683;48.738;9.226;2023-06-14T12:18:47;25.90;38.30
1379;DHT22;683;48.738;9.226;2023-06-14T12:21:15;25.90;38.30
1379;DHT22;683;48.738;9.226;2023-06-14T12:23:43;25.90;38.10
1379;DHT22;683;48.738;9.226;2023-06-14T12:26:13;26.00;37.30
1379;DHT22;683;48.738;9.226;2023-06-14T12:28:42;26.00;37.20
1379;DHT22;683;48.738;9.226;2023-06-14T12:31:14;26.10;37.90
1379;DHT22;683;48.738;9.226;2023-06-14T12:33:42;26.40;37.40
1379;DHT22;683;48.738;9.226;2023-06-14T12:36:11;26.80;36.90
1379;DHT22;683;48.738;9.226;2023-06-14T12:38:39;27.40;36.00
1379;DHT22;683;48.738;9.226;2023-06-14T12:41:06;27.70;35.70
1379;DHT22;683;48.738;9.226;2023-06-14T12:43:34;27.80;34.90
1379;DHT22;683;48.738;9.226;2023-06-14T12:46:01;27.70;35.10
1379;DHT22;683;48.738;9.226;2023-06-14T12:48:30;27.60;35.40
1379;DHT22;683;48.738;9.226;2023-06-14T12:50:58;27.70;35.70
1379;DHT22;683;48.738;9.226;2023-06-14T12:53:25;28.10;34.80
1379;DHT22;683;48.738;9.226;2023-06-14T12:55:53;28.70;33.90
1379;DHT22;683;48.738;9.226;2023-06-14T12:58:21;29.40;32.60
1379;DHT22;683;48.738;9.226;2023-06-14T13:00:49;29.50;32.00
1379;DHT22;683;48.738;9.226;2023-06-14T13:03:17;29.40;32.10
1379;DHT22;683;48.738;9.226;2023-06-14T13:05:46;29.40;32.70
1379;DHT22;683;48.738;9.226;2023-06-14T13:08:13;29.70;32.80
1379;DHT22;683;48.738;9.226;2023-06-14T13:10:41;30.50;32.10
1379;DHT22;683;48.738;9.226;2023-06-14T13:13:09;31.60;31.00
1379;DHT22;683;48.738;9.226;2023-06-14T13:15:38;32.60;28.60
1379;DHT22;683;48.738;9.226;2023-06-14T13:18:06;33.50;28.50
1379;DHT22;683;48.738;9.226;2023-06-14T13:20:33;34.50;27.30
1379;DHT22;683;48.738;9.226;2023-06-14T13:23:02;35.60;26.10
1379;DHT22;683;48.738;9.226;2023-06-14T13:25:31;36.10;25.60
1379;DHT22;683;48.738;9.226;2023-06-14T13:27:59;36.40;24.80
1379;DHT22;683;48.738;9.226;2023-06-14T13:30:26;36.50;25.20
1379;DHT22;683;48.738;9.226;2023-06-14T13:32:54;37.00;24.70
1379;DHT22;683;48.738;9.226;2023-06-14T13:35:22;37.50;23.90
1379;DHT22;683;48.738;9.226;2023-06-14T13:37:49;38.00;23.40
1379;DHT22;683;48.738;9.226;2023-06-14T13:40:18;38.50;23.20
1379;DHT22;683;48.738;9.226;2023-06-14T13:42:46;39.00;24.10
1379;DHT22;683;48.738;9.226;2023-06-14T13:45:15;39.30;23.50
1379;DHT22;683;48.738;9.226;2023-06-14T13:47:42;39.50;23.20
1379;DHT22;683;48.738;9.226;2023-06-14T13:50:10;39.90;23.00
1379;DHT22;683;48.738;9.226;2023-06-14T13:52:38;40.30;22.60
1379;DHT22;683;48.738;9.226;2023-06-14T13:55:06;40.60;22.40
1379;DHT22;683;48.738;9.226;2023-06-14T13:57:35;41.20;22.10
1379;DHT22;683;48.738;9.226;2023-06-14T14:00:03;41.60;21.30
1379;DHT22;683;48.738;9.226;2023-06-14T14:02:41;41.30;21.20
1379;DHT22;683;48.738;9.226;2023-06-14T14:05:09;40.30;21.70
1379;DHT22;683;48.738;9.226;2023-06-14T14:07:37;39.90;22.10
1379;DHT22;683;48.738;9.226;2023-06-14T14:10:06;40.30;22.30
1379;DHT22;683;48.738;9.226;2023-06-14T14:12:35;40.90;22.30
1379;DHT22;683;48.738;9.226;2023-06-14T14:15:05;41.90;21.10
1379;DHT22;683;48.738;9.226;2023-06-14T14:17:38;42.80;20.90
1379;DHT22;683;48.738;9.226;2023-06-14T14:20:07;43.50;20.60
1379;DHT22;683;48.738;9.226;2023-06-14T14:22:34;43.80;20.10
1379;DHT22;683;48.738;9.226;2023-06-14T14:25:02;44.00;20.80
1379;DHT22;683;48.738;9.226;2023-06-14T14:27:29;43.90;20.20
1379;DHT22;683;48.738;9.226;2023-06-14T14:29:58;43.90;19.80
1379;DHT22;683;48.738;9.226;2023-06-14T14:32:37;44.10;19.60
1379;DHT22;683;48.738;9.226;2023-06-14T14:35:06;44.40;19.30
1379;DHT22;683;48.738;9.226;2023-06-14T14:37:34;43.50;19.70
1379;DHT22;683;48.738;9.226;2023-06-14T14:40:01;41.60;20.30
1379;DHT22;683;48.738;9.226;2023-06-14T14:42:30;39.70;21.90
1379;DHT22;683;48.738;9.226;2023-06-14T14:44:58;37.90;22.60
1379;DHT22;683;48.738;9.226;2023-06-14T14:47:26;36.60;23.50
1379;DHT22;683;48.738;9.226;2023-06-14T14:49:53;36.20;24.20
1379;DHT22;683;48.738;9.226;2023-06-14T14:52:21;36.00;24.10
1379;DHT22;683;48.738;9.226;2023-06-14T14:54:49;35.40;24.40
1379;DHT22;683;48.738;9.226;2023-06-14T14:57:16;34.70;25.60
1379;DHT22;683;48.738;9.226;2023-06-14T14:59:44;33.90;26.10
1379;DHT22;683;48.738;9.226;2023-06-14T15:02:13;33.10;26.90
1379;DHT22;683;48.738;9.226;2023-06-14T15:04:40;32.90;27.30
1379;DHT22;683;48.738;9.226;2023-06-14T15:07:08;33.90;26.70
1379;DHT22;683;48.738;9.226;2023-06-14T15:09:35;35.20;26.10
1379;DHT22;683;48.738;9.226;2023-06-14T15:12:03;36.50;24.90
1379;DHT22;683;48.738;9.226;2023-06-14T15:14:31;37.70;23.60
1379;DHT22;683;48.738;9.226;2023-06-14T15:16:59;38.80;23.30
1379;DHT22;683;48.738;9.226;2023-06-14T15:19:29;39.80;22.70
1379;DHT22;683;48.738;9.226;2023-06-14T15:21:56;40.60;21.60
1379;DHT22;683;48.738;9.226;2023-06-14T15:24:25;41.20;21.30
1379;DHT22;683;48.738;9.226;2023-06-14T15:26:52;41.90;21.20
1379;DHT22;683;48.738;9.226;2023-06-14T15:29:20;42.30;21.00
1379;DHT22;683;48.738;9.226;2023-06-14T15:31:47;42.60;20.60
1379;DHT22;683;48.738;9.226;2023-06-14T15:34:15;42.70;20.30
1379;DHT22;683;48.738;9.226;2023-06-14T15:36:44;42.60;20.30
1379;DHT22;683;48.738;9.226;2023-06-14T15:39:12;42.50;20.20
1379;DHT22;683;48.738;9.226;2023-06-14T15:41:40;42.40;20.50
1379;DHT22;683;48.738;9.226;2023-06-14T15:44:08;42.10;20.50
1379;DHT22;683;48.738;9.226;2023-06-14T15:46:37;41.30;21.00
1379;DHT22;683;48.738;9.226;2023-06-14T15:49:09;41.00;21.20
1379;DHT22;683;48.738;9.226;2023-06-14T15:51:37;40.20;21.50
1379;DHT22;683;48.738;9.226;2023-06-14T15:54:06;38.90;22.10
1379;DHT22;683;48.738;9.226;2023-06-14T15:56:33;37.40;23.20
1379;DHT22;683;48.738;9.226;2023-06-14T15:59:01;36.10;24.20
1379;DHT22;683;48.738;9.226;2023-06-14T16:01:28;35.60;24.60
1379;DHT22;683;48.738;9.226;2023-06-14T16:03:56;35.70;24.80
1379;DHT22;683;48.738;9.226;2023-06-14T16:06:23;36.30;24.30
1379;DHT22;683;48.738;9.226;2023-06-14T16:08:51;36.80;24.40
1379;DHT22;683;48.738;9.226;2023-06-14T16:11:20;37.30;23.90
1379;DHT22;683;48.738;9.226;2023-06-14T16:13:48;37.70;23.90
1379;DHT22;683;48.738;9.226;2023-06-14T16:16:15;38.50;23.70
1379;DHT22;683;48.738;9.226;2023-06-14T16:18:43;39.30;23.10
1379;DHT22;683;48.738;9.226;2023-06-14T16:21:10;39.90;22.00
1379;DHT22;683;48.738;9.226;2023-06-14T16:23:38;40.30;21.70
1379;DHT22;683;48.738;9.226;2023-06-14T16:26:09;40.50;21.80
1379;DHT22;683;48.738;9.226;2023-06-14T16:28:38;40.60;21.40
1379;DHT22;683;48.738;9.226;2023-06-14T16:31:08;40.60;21.40